Time;durP1;ratioP1;P1;durP2;ratioP2;P2;SDS_P1;SDS_P2;PMS_P1;PMS_P2;Temp;Humidity;BMP_temperature;BMP_pressure;BME280_temperature;BME280_humidity;BME280_pressure;Samples;Min_cycle;Max_cycle;Signal;HPM_P1;HPM_P2
2024/01/25 00:00:47;;;;;;;27.08;6.22;;;12.70;1.00;;;10.10;100.00;101776.44;4958921;28;20063;-83
2024/01/25 00:03:14;;;;;;;26.63;8.02;;;12.20;1.00;;;10.17;100.00;101780.78;4959200;28;20149;-83
2024/01/25 00:05:43;;;;;;;26.33;7.00;;;12.00;1.00;;;10.17;100.00;101783.44;4958821;28;20073;-83
2024/01/25 00:08:10;;;;;;;31.48;8.15;;;11.60;1.00;;;9.94;100.00;101751.84;4932611;29;20490;-84
2024/01/25 00:10:37;;;;;;;30.42;8.63;;;11.90;1.00;;;10.15;100.00;101774.66;4941988;28;20055;-83
2024/01/25 00:13:04;;;;;;;28.08;7.57;;;11.40;1.00;;;9.80;100.00;101717.69;4960265;28;20127;-83
2024/01/25 00:15:31;;;;;;;23.15;6.93;;;11.40;1.00;;;10.10;100.00;101763.28;4944445;28;20147;-83
2024/01/25 00:17:58;;;;;;;28.40;6.97;;;12.10;99.90;;;9.89;100.00;101735.22;4943788;28;20070;-83
2024/01/25 00:20:25;;;;;;;28.48;7.22;;;11.80;1.00;;;9.93;100.00;101729.97;4962666;28;20337;-82
2024/01/25 00:22:53;;;;;;;28.45;6.95;;;11.40;99.90;;;9.86;100.00;101722.06;4942963;29;20490;-82
2024/01/25 00:25:20;;;;;;;27.40;6.50;;;11.60;1.00;;;10.28;100.00;101777.31;4958417;28;20753;-83
2024/01/25 00:27:47;;;;;;;24.63;6.28;;;11.40;99.90;;;10.16;100.00;101762.41;4927174;28;20395;-83
2024/01/25 00:30:14;;;;;;;20.67;5.65;;;11.40;99.90;;;9.97;100.00;101719.44;4951739;28;20043;-84
2024/01/25 00:32:42;;;;;;;22.60;6.00;;;11.40;99.90;;;10.03;100.00;101724.69;4950197;28;20071;-83
2024/01/25 00:35:13;;;;;;;22.17;6.47;;;11.60;99.90;;;10.18;100.00;101766.75;4951018;28;20568;-84
2024/01/25 00:37:41;;;;;;;22.27;6.65;;;11.50;1.00;;;10.18;100.00;101765.91;4952720;28;20055;-83
2024/01/25 00:40:09;;;;;;;19.42;5.32;;;11.40;99.90;;;10.14;100.00;101754.50;4969862;28;20062;-82
2024/01/25 00:42:43;;;;;;;20.90;5.78;;;11.30;1.00;;;10.18;100.00;101774.66;4929487;28;20082;-82
2024/01/25 00:45:11;;;;;;;30.27;6.95;;;11.30;1.00;;;10.08;100.00;101754.50;4953803;28;20157;-84
2024/01/25 00:47:39;;;;;;;23.70;5.97;;;11.30;49.60;;;10.16;100.00;101773.78;4953741;28;20142;-82
2024/01/25 00:50:06;;;;;;;22.05;5.05;;;11.30;41.70;;;10.11;100.00;101762.41;4915497;29;20059;-83
2024/01/25 00:52:35;;;;;;;20.38;5.63;;;11.30;22.40;;;10.18;100.00;101766.75;4937027;28;20083;-84
2024/01/25 00:55:03;;;;;;;25.65;6.28;;;11.30;20.10;;;10.03;100.00;101757.13;4953936;28;20067;-83
2024/01/25 00:57:31;;;;;;;26.02;5.88;;;11.30;1.00;;;10.14;100.00;101762.41;4939915;28;20058;-83
2024/01/25 01:00:00;;;;;;;22.77;5.10;;;11.30;28.30;;;10.08;100.00;101758.00;4949985;28;20057;-84
2024/01/25 01:02:35;;;;;;;21.13;5.60;;;11.30;1.00;;;10.13;100.00;101765.00;4951605;28;20079;-82
2024/01/25 01:05:02;;;;;;;27.08;5.82;;;11.30;1.00;;;10.17;100.00;101772.91;4950071;28;20102;-81
2024/01/25 01:07:29;;;;;;;29.00;7.45;;;11.30;1.00;;;10.18;100.00;101763.28;4919086;28;20495;-82
2024/01/25 01:10:00;;;;;;;25.20;6.18;;;11.30;99.90;;;9.86;100.00;101722.94;4935873;28;20047;-80
2024/01/25 01:12:27;;;;;;;22.50;6.80;;;11.90;99.90;;;10.12;100.00;101763.25;4943051;28;20039;-82
2024/01/25 01:14:54;;;;;;;21.45;6.75;;;12.20;99.90;;;10.12;100.00;101787.81;4946474;29;20055;-82
2024/01/25 01:17:21;;;;;;;22.15;6.80;;;11.30;99.90;;;9.95;100.00;101758.00;4941481;29;20475;-82
2024/01/25 01:19:48;;;;;;;32.95;7.90;;;11.30;99.90;;;10.15;100.00;101769.41;4949115;28;20042;-82
2024/01/25 01:22:16;;;;;;;16.88;5.18;;;11.90;99.90;;;9.79;100.00;101716.78;4943400;28;20577;-83
2024/01/25 01:24:43;;;;;;;26.52;6.30;;;11.30;90.10;;;10.16;100.00;101770.28;4937225;28;20058;-82
2024/01/25 01:27:11;;;;;;;29.98;7.18;;;11.30;99.90;;;10.15;100.00;101786.97;4953976;28;20066;-82
2024/01/25 01:29:38;;;;;;;27.33;7.68;;;11.30;55.30;;;9.82;100.00;101726.44;4955617;28;20106;-82
2024/01/25 01:32:05;;;;;;;28.08;5.95;;;11.80;40.70;;;9.72;100.00;101720.31;4947839;28;20048;-84
2024/01/25 01:34:32;;;;;;;28.38;6.47;;;11.30;99.90;;;9.97;100.00;101745.72;4945464;28;20498;-83
2024/01/25 01:37:00;;;;;;;20.42;5.35;;;12.10;99.90;;;10.01;100.00;101758.00;4958019;28;20043;-84
2024/01/25 01:39:27;;;;;;;28.42;6.53;;;11.30;99.90;;;9.83;100.00;101717.69;4937915;28;20057;-84
2024/01/25 01:41:54;;;;;;;22.92;6.63;;;12.00;12.90;;;9.94;100.00;101743.97;4954834;28;20212;-84
2024/01/25 01:44:21;;;;;;;23.00;6.63;;;12.30;1.00;;;9.78;100.00;101711.56;4938219;28;20090;-83
2024/01/25 01:46:48;;;;;;;22.33;6.45;;;11.80;13.50;;;10.04;100.00;101758.00;4958521;28;20564;-85
2024/01/25 01:49:16;;;;;;;22.25;5.65;;;11.80;1.00;;;10.15;100.00;101768.53;4940434;28;20062;-82
2024/01/25 01:51:44;;;;;;;31.63;6.28;;;11.80;1.00;;;9.74;100.00;101701.88;4951655;28;20106;-82
2024/01/25 01:54:12;;;;;;;23.80;5.22;;;12.10;99.90;;;9.70;100.00;101694.88;4960156;28;20079;-83
2024/01/25 01:56:42;;;;;;;29.38;7.03;;;12.10;99.90;;;9.86;100.00;101716.81;4952374;28;20051;-83
2024/01/25 01:59:11;;;;;;;22.83;7.13;;;12.10;99.90;;;10.17;100.00;101767.66;4937009;29;20518;-83
2024/01/25 02:01:38;;;;;;;25.90;6.07;;;11.30;99.90;;;10.15;100.00;101761.50;4954927;28;20062;-83
2024/01/25 02:04:05;;;;;;;29.02;6.45;;;11.30;99.90;;;10.07;100.00;101752.75;4947096;29;20123;-82
2024/01/25 02:06:34;;;;;;;22.92;6.00;;;11.60;99.90;;;10.14;100.00;101770.28;4928353;28;20095;-83
2024/01/25 02:09:01;;;;;;;28.35;6.03;;;11.30;99.90;;;10.00;100.00;101754.50;4944732;29;20054;-83
2024/01/25 02:11:29;;;;;;;23.15;5.82;;;11.30;99.90;;;9.97;100.00;101748.38;4952727;28;20057;-82
2024/01/25 02:13:56;;;;;;;24.27;7.13;;;11.50;99.90;;;10.14;100.00;101786.06;4943522;28;20048;-83
2024/01/25 02:16:24;;;;;;;28.85;6.55;;;11.30;99.90;;;10.16;100.00;101775.56;4954716;28;20554;-83
2024/01/25 02:18:54;;;;;;;23.60;6.22;;;11.30;99.90;;;9.71;100.00;101722.91;4917870;28;20103;-83
2024/01/25 02:21:21;;;;;;;25.02;6.15;;;11.30;99.90;;;10.13;100.00;101781.69;4920572;29;20142;-83
2024/01/25 02:23:50;;;;;;;24.67;6.72;;;11.30;99.90;;;9.77;100.00;101717.69;4947210;28;20053;-83
2024/01/25 02:26:17;;;;;;;24.75;6.45;;;11.80;1.00;;;9.96;100.00;101754.50;4947011;29;20047;-83
2024/01/25 02:28:44;;;;;;;19.10;6.05;;;11.30;1.00;;;9.75;100.00;101722.03;4946245;28;20074;-83
2024/01/25 02:31:11;;;;;;;23.10;6.63;;;11.70;1.00;;;9.77;100.00;101730.84;4961672;28;20070;-82
2024/01/25 02:33:38;;;;;;;27.67;7.95;;;12.00;1.00;;;9.95;100.00;101769.38;4961691;28;20085;-82
2024/01/25 02:36:06;;;;;;;21.77;6.80;;;12.30;1.00;;;9.99;100.00;101767.66;4974296;28;20513;-82
2024/01/25 02:38:33;;;;;;;23.17;6.30;;;11.20;1.00;;;10.02;100.00;101767.63;4957033;28;20062;-83
2024/01/25 02:41:00;;;;;;;21.90;6.90;;;11.20;1.00;;;9.88;100.00;101734.31;4949757;29;20039;-82
2024/01/25 02:43:30;;;;;;;26.52;7.47;;;11.20;1.00;;;9.70;100.00;101713.28;4934160;28;20079;-83
2024/01/25 02:45:57;;;;;;;22.30;8.35;;;11.80;1.00;;;9.97;100.00;101758.88;4958825;28;20050;-82
2024/01/25 02:48:24;;;;;;;21.60;6.45;;;11.70;1.00;;;9.74;100.00;101718.56;4950323;28;20042;-83
2024/01/25 02:50:51;;;;;;;20.50;5.30;;;11.20;1.00;;;9.78;100.00;101753.59;4950583;28;20063;-82
2024/01/25 02:53:18;;;;;;;18.55;6.78;;;11.10;15.30;;;9.88;100.00;101765.00;4945830;29;20045;-83
2024/01/25 02:55:45;;;;;;;21.27;6.50;;;11.30;1.00;;;9.96;100.00;101780.78;4942985;28;20125;-82
2024/01/25 02:58:12;;;;;;;27.70;6.00;;;12.10;98.20;;;9.58;100.00;101725.50;4959304;28;20078;-82
2024/01/25 03:00:39;;;;;;;24.40;6.57;;;11.10;54.00;;;9.68;100.00;101743.94;4926494;28;20057;-82
2024/01/25 03:03:06;;;;;;;25.50;6.32;;;11.80;47.80;;;9.56;100.00;101732.53;4925417;28;20093;-83
2024/01/25 03:05:34;;;;;;;23.10;5.45;;;11.40;99.30;;;9.57;100.00;101751.81;4945362;28;20050;-83
2024/01/25 03:08:01;;;;;;;24.42;5.50;;;11.50;99.90;;;9.79;100.00;101793.03;4955729;28;20055;-81
2024/01/25 03:10:29;;;;;;;22.88;6.43;;;11.00;99.90;;;9.44;100.00;101732.50;4936385;28;20158;-82
2024/01/25 03:12:56;;;;;;;24.63;5.70;;;11.10;99.90;;;9.79;100.00;101786.91;4956436;28;20090;-84
2024/01/25 03:15:23;;;;;;;21.10;6.32;;;11.00;99.90;;;9.72;100.00;101782.50;4948940;28;20145;-82
2024/01/25 03:17:50;;;;;;;26.15;7.75;;;11.20;99.90;;;9.73;100.00;101786.88;4940259;28;20056;-82
2024/01/25 03:20:18;;;;;;;31.40;8.27;;;10.90;99.90;;;9.41;100.00;101749.13;4947546;28;20056;-83
2024/01/25 03:22:45;;;;;;;25.77;7.22;;;11.20;1.00;;;9.29;100.00;101734.22;4945623;28;20051;-83
2024/01/25 03:25:12;;;;;;;34.50;7.25;;;11.20;1.00;;;9.35;100.00;101741.22;4949329;28;20043;-83
2024/01/25 03:27:39;;;;;;;32.47;8.05;;;10.80;7.80;;;9.39;100.00;101748.25;4931715;28;20082;-83
2024/01/25 03:30:07;;;;;;;18.60;5.72;;;11.80;1.00;;;9.53;100.00;101774.56;4938030;28;20055;-82
2024/01/25 03:32:34;;;;;;;27.00;5.90;;;10.80;99.90;;;9.34;100.00;101749.97;4933777;28;20150;-83
2024/01/25 03:35:01;;;;;;;26.15;6.32;;;11.30;1.00;;;9.33;100.00;101736.00;4963216;28;20039;-82
2024/01/25 03:37:29;;;;;;;21.13;5.85;;;10.90;99.90;;;9.26;100.00;101742.06;4924011;28;20051;-82
2024/01/25 03:39:56;;;;;;;17.95;4.80;;;11.10;1.00;;;9.15;100.00;101728.03;4970893;28;20051;-82
2024/01/25 03:42:23;;;;;;;27.55;5.65;;;10.80;1.00;;;9.26;100.00;101755.19;4932843;29;20070;-82
2024/01/25 03:44:52;;;;;;;23.45;6.00;;;10.70;24.30;;;9.14;100.00;101739.44;4952753;28;20106;-83
2024/01/25 03:47:19;;;;;;;20.77;5.78;;;10.60;50.90;;;9.22;100.00;101756.06;4943032;28;20097;-82
2024/01/25 03:49:46;;;;;;;32.83;7.43;;;11.30;19.60;;;9.25;100.00;101773.59;4921467;28;20047;-82
2024/01/25 03:52:16;;;;;;;21.58;6.65;;;11.10;1.00;;;9.11;100.00;101750.78;4947713;28;20053;-82
2024/01/25 03:54:43;;;;;;;;;;;11.20;1.00;;;9.45;100.00;101805.22;4933915;28;20083;-83
2024/01/25 03:57:10;;;;;;;26.73;6.60;;;11.80;1.50;;;9.41;100.00;101799.06;4971105;28;19961;-82
2024/01/25 03:59:40;;;;;;;18.55;5.45;;;11.40;99.90;;;9.04;100.00;101749.88;4951701;28;20066;-82
2024/01/25 04:02:07;;;;;;;14.93;5.47;;;10.20;99.90;;;9.13;100.00;101762.16;4962324;28;20050;-82
2024/01/25 04:04:34;;;;;;;27.05;6.07;;;10.60;51.40;;;9.42;100.00;101800.81;4933545;28;20120;-82
2024/01/25 04:07:01;;;;;;;22.52;6.45;;;10.60;1.00;;;9.39;100.00;101811.31;4949360;28;20110;-82
2024/01/25 04:09:28;;;;;;;32.20;7.15;;;11.30;1.00;;;9.00;100.00;101756.00;4930842;28;20051;-82
2024/01/25 04:11:56;;;;;;;26.52;8.80;;;11.20;1.00;;;8.99;100.00;101738.47;4957312;28;20047;-83
2024/01/25 04:14:23;;;;;;;27.77;8.18;;;10.60;1.00;;;9.17;100.00;101784.06;4964947;28;20765;-83
2024/01/25 04:16:50;;;;;;;24.52;6.38;;;11.00;1.00;;;9.12;100.00;101781.41;4925293;28;20055;-82
2024/01/25 04:19:18;;;;;;;21.02;6.03;;;11.40;1.00;;;8.99;100.00;101751.63;4963757;28;20513;-83
2024/01/25 04:21:45;;;;;;;22.05;5.80;;;10.80;1.00;;;9.30;100.00;101813.88;4921459;28;20047;-83
2024/01/25 04:24:18;;;;;;;30.02;6.57;;;10.50;43.80;;;8.93;100.00;101772.56;4952423;28;20059;-83
2024/01/25 04:26:45;;;;;;;21.52;6.28;;;11.00;99.90;;;9.22;100.00;101811.22;4958590;28;20044;-82
2024/01/25 04:29:12;;;;;;;28.40;7.28;;;10.40;99.90;;;9.26;100.00;101823.50;4919497;29;20075;-83
2024/01/25 04:31:44;;;;;;;21.25;5.40;;;10.50;99.90;;;9.27;100.00;101827.00;4925492;28;20090;-81
2024/01/25 04:34:18;;;;;;;24.65;5.72;;;10.40;99.90;;;9.06;100.00;101803.28;4930639;29;20462;-82
2024/01/25 04:36:45;;;;;;;23.05;6.03;;;10.40;99.90;;;9.09;100.00;101810.28;4932072;28;20107;-82
2024/01/25 04:39:13;;;;;;;18.38;6.18;;;10.80;99.90;;;9.37;100.00;101844.59;4938931;28;20494;-82
2024/01/25 04:41:40;;;;;;;28.58;7.68;;;11.40;99.90;;;9.33;100.00;101848.94;4935015;28;20105;-82
2024/01/25 04:44:07;;;;;;;23.52;7.95;;;11.00;99.90;;;9.12;100.00;101818.19;4932962;28;20081;-82
2024/01/25 04:46:36;;;;;;;28.17;10.02;;;10.40;99.90;;;9.16;100.00;101835.69;4968368;28;20047;-82
2024/01/25 04:49:03;;;;;;;33.20;10.70;;;10.70;99.90;;;8.85;100.00;101796.16;4948240;28;20754;-82
2024/01/25 04:51:31;;;;;;;29.70;11.00;;;10.80;1.00;;;8.81;100.00;101794.38;4936545;28;20043;-83
2024/01/25 04:53:58;;;;;;;37.50;10.05;;;10.60;1.00;;;8.94;100.00;101822.47;4935871;29;20586;-83
2024/01/25 04:56:25;;;;;;;32.22;9.98;;;10.20;99.90;;;8.83;100.00;101820.66;4976400;28;20070;-83
2024/01/25 04:58:52;;;;;;;29.80;9.60;;;10.20;99.90;;;8.67;100.00;101790.78;4960030;28;20051;-83
2024/01/25 05:01:19;;;;;;;28.42;8.25;;;10.80;99.90;;;8.85;100.00;101843.38;4950791;28;20062;-81
2024/01/25 05:03:47;;;;;;;25.35;7.82;;;10.80;99.90;;;8.91;100.00;101843.44;4962542;28;20061;-82
2024/01/25 05:06:14;;;;;;;23.95;6.60;;;10.70;97.00;;;8.91;100.00;101846.06;4939392;28;20075;-83
2024/01/25 05:08:43;;;;;;;30.52;7.75;;;10.30;1.00;;;8.78;100.00;101831.09;4947837;28;20053;-83
2024/01/25 05:11:10;;;;;;;19.38;6.90;;;10.10;20.30;;;8.60;100.00;101822.22;4940036;28;20055;-82
2024/01/25 05:13:37;;;;;;;21.05;6.90;;;10.10;1.00;;;8.93;100.00;101869.69;4922139;28;20055;-83
2024/01/25 05:16:05;;;;;;;30.30;8.27;;;10.20;23.40;;;8.79;100.00;101875.72;4955278;28;20146;-82
2024/01/25 05:18:32;;;;;;;20.55;6.60;;;10.10;1.00;;;8.89;100.00;101887.16;4939437;28;20051;-82
2024/01/25 05:20:59;;;;;;;26.85;6.47;;;10.70;1.00;;;8.59;100.00;101853.69;4951380;29;20057;-82
2024/01/25 05:23:26;;;;;;;22.50;6.90;;;10.80;1.00;;;8.77;100.00;101882.69;4941428;29;20119;-83
2024/01/25 05:25:53;;;;;;;27.58;7.28;;;10.50;1.00;;;8.50;100.00;101844.00;4928005;28;20412;-83
2024/01/25 05:28:21;;;;;;;36.60;8.23;;;9.50;1.00;;;8.56;100.00;101856.31;4925183;29;20099;-82
2024/01/25 05:30:48;;;;;;;38.70;12.07;;;9.90;20.80;;;8.55;100.00;101871.16;4954167;28;20062;-82
2024/01/25 05:33:21;;;;;;;35.53;9.75;;;10.60;20.30;;;8.74;100.00;101914.19;4957033;28;20052;-83
2024/01/25 05:35:48;;;;;;;25.75;7.57;;;10.80;8.60;;;8.32;100.00;101824.59;4935957;28;20434;-83
2024/01/25 05:38:16;;;;;;;24.58;8.30;;;10.00;12.00;;;8.69;100.00;101899.25;4967435;28;20051;-82
2024/01/25 05:40:43;;;;;;;23.58;7.70;;;10.40;47.00;;;8.65;100.00;101901.84;4954204;28;20074;-83
2024/01/25 05:43:10;;;;;;;28.77;9.40;;;9.80;99.90;;;8.44;100.00;101881.53;4949213;29;20057;-83
2024/01/25 05:45:37;;;;;;;25.80;7.38;;;10.20;99.90;;;8.27;100.00;101865.59;4934160;28;20044;-83
2024/01/25 05:48:05;;;;;;;28.88;8.70;;;9.80;99.90;;;8.21;100.00;101842.88;4936477;29;20051;-83
2024/01/25 05:50:33;;;;;;;32.72;8.93;;;9.80;99.90;;;8.15;100.00;101832.28;4960647;28;20058;-82
2024/01/25 05:53:00;;;;;;;32.63;10.05;;;10.70;99.90;;;8.43;100.00;101900.75;4952542;28;20122;-83
2024/01/25 05:55:27;;;;;;;31.52;8.57;;;10.40;1.00;;;8.34;100.00;101883.19;4936445;28;20133;-82
2024/01/25 05:57:54;;;;;;;29.52;8.93;;;9.70;1.00;;;8.39;100.00;101912.09;4944565;28;20561;-82
2024/01/25 06:00:22;;;;;;;26.05;7.32;;;10.40;52.20;;;7.94;100.00;101838.19;4960657;28;20063;-83
2024/01/25 06:02:49;;;;;;;25.80;7.15;;;9.50;99.90;;;7.87;100.00;101823.28;4962586;28;20042;-82
2024/01/25 06:05:16;;;;;;;27.05;7.00;;;10.20;99.90;;;7.70;100.00;101820.47;4936583;28;20126;-82
2024/01/25 06:07:44;;;;;;;25.00;6.55;;;9.50;1.00;;;7.77;100.00;101844.13;4936398;28;20062;-82
2024/01/25 06:10:11;;;;;;;30.88;7.93;;;9.30;1.00;;;8.07;100.00;101897.75;4936967;29;20051;-82
2024/01/25 06:12:38;;;;;;;28.60;6.00;;;9.30;15.70;;;8.04;100.00;101881.09;4955703;28;20051;-81
2024/01/25 06:15:07;;;;;;;22.73;6.38;;;9.70;14.40;;;8.02;100.00;101874.97;4959467;28;20054;-80
2024/01/25 06:17:34;;;;;;;28.80;7.90;;;9.30;16.70;;;8.01;100.00;101873.22;4970961;28;20087;-81
2024/01/25 06:20:02;;;;;;;36.47;8.10;;;9.20;99.90;;;8.07;100.00;101889.91;4962769;28;20054;-80
2024/01/25 06:22:29;;;;;;;26.35;8.10;;;9.30;99.90;;;8.15;100.00;101883.88;4947001;28;20047;-81
2024/01/25 06:24:57;;;;;;;28.75;8.43;;;9.90;99.90;;;8.20;100.00;101877.81;4947093;28;20050;-80
2024/01/25 06:27:24;;;;;;;28.70;6.55;;;9.50;38.30;;;8.04;100.00;101849.66;4939101;29;20051;-80
2024/01/25 06:29:56;;;;;;;31.02;8.23;;;9.50;1.00;;;8.21;100.00;101869.09;4948973;28;20098;-80
2024/01/25 06:32:23;;;;;;;26.33;7.78;;;9.50;1.00;;;8.34;100.00;101890.16;4938929;29;20067;-80
2024/01/25 06:34:53;;;;;;;27.83;10.23;;;9.60;1.00;;;8.38;100.00;101891.97;4946641;28;20138;-79
2024/01/25 06:37:21;;;;;;;31.77;11.80;;;9.40;1.00;;;8.28;100.00;101879.63;4966468;28;20125;-80
2024/01/25 06:39:48;;;;;;;35.70;10.90;;;9.70;1.00;;;8.24;100.00;101889.19;4966464;28;20113;-77
2024/01/25 06:42:15;;;;;;;38.55;10.20;;;10.00;1.00;;;8.19;100.00;101896.13;4971374;28;20047;-77
2024/01/25 06:44:43;;;;;;;31.95;11.93;;;9.40;1.00;;;8.17;100.00;101884.75;4957749;28;20105;-77
2024/01/25 06:47:10;;;;;;;36.28;14.02;;;9.50;1.00;;;8.14;100.00;101887.34;4949333;28;20059;-77
2024/01/25 06:49:37;;;;;;;39.53;16.45;;;9.40;1.00;;;8.18;100.00;101903.09;4948230;28;20067;-77
2024/01/25 06:52:05;;;;;;;35.13;13.63;;;9.40;1.00;;;8.15;100.00;101915.34;4952932;28;20055;-77
2024/01/25 06:54:35;;;;;;;37.92;12.23;;;9.30;1.00;;;8.14;100.00;101908.34;4954357;28;20141;-77
2024/01/25 06:57:02;;;;;;;25.98;9.43;;;9.30;1.00;;;8.13;100.00;101906.56;4949335;28;20065;-77
2024/01/25 06:59:32;;;;;;;32.78;10.15;;;9.50;1.00;;;7.95;100.00;101888.03;4957172;28;20047;-77
2024/01/25 07:02:01;;;;;;;31.58;8.45;;;9.20;20.20;;;7.96;100.00;101904.66;4952631;28;20043;-77
2024/01/25 07:04:29;;;;;;;18.83;6.57;;;9.20;60.10;;;7.91;100.00;101916.78;4950765;28;20510;-77
2024/01/25 07:06:57;;;;;;;25.80;9.63;;;9.20;96.30;;;7.87;100.00;101913.25;4944989;28;20039;-77
2024/01/25 07:09:24;;;;;;;28.83;6.38;;;9.20;99.90;;;7.80;100.00;101914.06;4952195;28;20043;-77
2024/01/25 07:11:51;;;;;;;24.75;6.20;;;9.10;99.90;;;7.78;100.00;101915.78;4952892;28;20137;-76
2024/01/25 07:14:18;;;;;;;31.17;7.13;;;9.00;99.90;;;7.68;100.00;101904.31;4952734;28;20069;-77
2024/01/25 07:16:45;;;;;;;32.63;6.65;;;9.10;99.90;;;7.70;100.00;101912.16;4934385;28;20071;-76
2024/01/25 07:19:15;;;;;;;25.52;8.02;;;9.00;99.90;;;7.83;100.00;101928.94;4937722;29;20047;-76
2024/01/25 07:21:45;;;;;;;28.38;6.90;;;9.00;99.90;;;7.85;100.00;101938.56;4952487;28;20043;-77
2024/01/25 07:24:12;;;;;;;;;;;9.00;99.90;;;7.86;100.00;101945.56;4956142;28;20318;-77
2024/01/25 07:26:39;;;;;;;33.65;7.63;;;9.00;99.90;;;7.86;100.00;101944.69;4954642;28;19926;-77
2024/01/25 07:29:06;;;;;;;30.77;8.70;;;9.00;99.90;;;7.82;100.00;101951.63;4961422;28;20048;-77
2024/01/25 07:31:33;;;;;;;29.67;8.68;;;9.00;99.90;;;7.83;100.00;101952.53;4958328;28;20038;-77
2024/01/25 07:34:00;;;;;;;29.23;11.30;;;9.10;99.90;;;7.80;100.00;101954.25;4929806;28;20047;-76
2024/01/25 07:36:27;;;;;;;29.08;11.80;;;9.00;99.90;;;7.84;100.00;101946.41;4926491;29;20059;-77
2024/01/25 07:38:54;;;;;;;34.38;12.57;;;9.00;99.90;;;7.81;100.00;101942.00;4949280;28;20459;-77
2024/01/25 07:41:22;;;;;;;36.22;11.48;;;9.00;99.90;;;7.75;100.00;101944.56;4977123;28;20049;-78
2024/01/25 07:43:49;;;;;;;37.97;15.23;;;9.00;99.90;;;7.83;100.00;101952.53;4959405;28;20117;-77
2024/01/25 07:46:17;;;;;;;29.98;11.02;;;9.60;99.90;;;7.69;100.00;101939.22;4955623;28;20047;-75
2024/01/25 07:48:44;;;;;;;27.95;9.77;;;8.90;99.90;;;7.71;100.00;101945.38;4967168;28;20053;-78
2024/01/25 07:51:13;;;;;;;34.38;12.65;;;8.90;99.90;;;7.59;100.00;101936.50;4955381;28;20050;-76
2024/01/25 07:53:40;;;;;;;41.00;13.55;;;8.90;99.90;;;7.61;100.00;101926.91;4944997;28;20117;-77
2024/01/25 07:56:08;;;;;;;26.08;10.82;;;8.90;99.90;;;7.65;100.00;101940.94;4964452;28;20130;-75
2024/01/25 07:58:36;;;;;;;32.13;10.52;;;8.90;99.90;;;7.70;100.00;101946.22;4949769;28;20383;-76
2024/01/25 08:01:07;;;;;;;32.15;7.95;;;8.90;99.90;;;7.59;100.00;101935.59;4964284;28;20047;-76
2024/01/25 08:03:34;;;;;;;33.95;9.85;;;8.90;99.90;;;7.68;100.00;101950.56;4956563;28;20528;-75
2024/01/25 08:06:05;;;;;;;31.08;9.95;;;8.90;99.90;;;7.69;100.00;101947.09;4928951;29;20048;-76
2024/01/25 08:08:35;;;;;;;34.63;12.10;;;9.00;99.90;;;7.69;100.00;101939.22;4946725;28;20051;-76
2024/01/25 08:11:04;;;;;;;26.20;11.23;;;8.90;99.90;;;7.70;100.00;101954.09;4964383;28;20051;-76
2024/01/25 08:13:31;;;;;;;24.00;7.93;;;8.90;99.90;;;7.59;100.00;101960.06;4948316;28;20075;-76
2024/01/25 08:16:01;;;;;;;25.65;7.88;;;8.80;1.00;;;7.54;100.00;101958.25;4963674;28;20624;-76
2024/01/25 08:18:29;;;;;;;24.15;7.82;;;8.80;1.00;;;7.55;100.00;101953.00;4975436;28;20047;-76
2024/01/25 08:20:57;;;;;;;30.38;8.65;;;8.80;1.00;;;7.65;100.00;101952.28;4959483;28;20066;-75
2024/01/25 08:23:24;;;;;;;27.52;7.70;;;9.10;1.00;;;7.67;100.00;101939.22;4933333;29;20047;-75
2024/01/25 08:25:51;;;;;;;32.10;9.68;;;8.80;1.00;;;7.71;100.00;101946.25;4956638;28;20674;-76
2024/01/25 08:28:19;;;;;;;32.03;10.02;;;8.90;1.00;;;7.69;100.00;101944.47;4947821;28;20702;-75
2024/01/25 08:30:47;;;;;;;32.25;9.10;;;8.90;1.00;;;7.60;100.00;101933.03;4932014;28;20055;-76
2024/01/25 08:33:14;;;;;;;39.38;10.55;;;8.90;1.00;;;7.71;100.00;101947.97;4956232;28;20055;-75
2024/01/25 08:35:42;;;;;;;27.20;7.50;;;9.00;1.00;;;7.79;100.00;101954.22;4932072;28;20055;-75
2024/01/25 08:38:09;;;;;;;30.98;7.38;;;8.90;1.00;;;7.65;100.00;101931.34;4954181;28;20117;-75
2024/01/25 08:40:36;;;;;;;28.05;8.23;;;9.00;1.00;;;7.75;100.00;101942.81;4952161;28;20058;-75
2024/01/25 08:43:04;;;;;;;28.50;7.93;;;9.00;1.00;;;7.90;100.00;101968.34;4951842;28;20395;-75
2024/01/25 08:45:32;;;;;;;22.73;7.63;;;9.00;1.00;;;7.98;100.00;101959.69;4963457;28;20112;-76
2024/01/25 08:47:59;;;;;;;27.83;7.20;;;9.10;1.00;;;7.94;100.00;101949.16;4963558;28;20035;-76
2024/01/25 08:50:27;;;;;;;23.15;6.80;;;9.10;1.00;;;8.02;100.00;101966.72;4956340;28;20411;-76
2024/01/25 08:52:55;;;;;;;25.83;6.60;;;9.20;1.00;;;7.99;100.00;101945.72;4949248;28;20043;-75
2024/01/25 08:55:22;;;;;;;29.15;7.43;;;9.20;1.00;;;8.13;100.00;101965.13;4938565;28;20047;-76
2024/01/25 08:57:50;;;;;;;35.83;7.63;;;9.30;1.00;;;8.07;100.00;101952.81;4947714;28;20610;-76
2024/01/25 09:00:18;;;;;;;25.50;7.38;;;9.30;1.00;;;8.22;100.00;101970.47;4932109;29;20047;-76
2024/01/25 09:02:45;;;;;;;35.20;7.53;;;9.40;1.00;;;8.21;100.00;101970.44;4965096;28;20078;-76
2024/01/25 09:05:12;;;;;;;28.00;7.53;;;9.30;1.00;;;8.22;100.00;101974.81;4947610;28;20462;-75
2024/01/25 09:07:40;;;;;;;27.30;8.98;;;9.40;1.00;;;8.26;100.00;101970.50;4948394;28;20051;-76
2024/01/25 09:10:08;;;;;;;28.77;7.57;;;10.10;1.00;;;8.33;100.00;101969.69;4942647;28;20502;-76
2024/01/25 09:12:37;;;;;;;25.23;7.07;;;9.50;1.00;;;8.46;100.00;101965.50;4952882;28;20547;-76
2024/01/25 09:15:05;;;;;;;31.08;8.45;;;9.60;1.00;;;8.42;100.00;101953.19;4932076;29;20047;-76
2024/01/25 09:17:32;;;;;;;29.58;8.43;;;9.60;1.00;;;8.46;100.00;101966.34;4947313;28;20490;-76
2024/01/25 09:19:59;;;;;;;31.75;7.70;;;9.80;1.00;;;8.47;100.00;101962.84;4947725;28;20047;-76
2024/01/25 09:22:27;;;;;;;39.50;9.68;;;9.70;99.90;;;8.48;100.00;101950.63;4949019;28;20055;-75
2024/01/25 09:24:54;;;;;;;34.78;9.77;;;9.70;99.90;;;8.59;100.00;101970.03;4931653;28;20192;-75
2024/01/25 09:27:22;;;;;;;32.33;8.80;;;10.30;99.90;;;8.73;100.00;101982.38;4963052;28;20505;-76
2024/01/25 09:29:49;;;;;;;29.48;7.63;;;9.90;99.90;;;8.71;100.00;101974.50;4963133;28;20126;-76
2024/01/25 09:32:17;;;;;;;31.98;8.65;;;9.90;99.90;;;8.76;100.00;101982.44;4967291;28;20056;-76
2024/01/25 09:34:44;;;;;;;25.70;8.35;;;10.00;99.90;;;8.80;100.00;101977.19;4947534;28;20040;-76
2024/01/25 09:37:11;;;;;;;30.00;7.97;;;10.00;99.90;;;8.77;100.00;101960.56;4951071;28;20654;-76
2024/01/25 09:39:38;;;;;;;30.30;7.60;;;10.10;99.90;;;8.98;100.00;101982.63;4932960;28;20059;-75
2024/01/25 09:42:07;;;;;;;30.77;7.85;;;10.10;99.90;;;9.04;100.00;101980.03;4952381;28;20047;-76
2024/01/25 09:44:34;;;;;;;29.92;9.52;;;10.20;63.70;;;9.13;100.00;101985.38;4935425;28;20058;-76
2024/01/25 09:47:05;;;;;;;26.42;8.88;;;10.30;1.00;;;9.19;100.00;101988.03;4959638;28;20542;-75
2024/01/25 09:49:33;;;;;;;37.08;7.55;;;10.30;1.00;;;9.17;100.00;101988.91;4974768;28;20573;-76
2024/01/25 09:52:05;;;;;;;29.88;7.43;;;10.30;1.00;;;9.15;100.00;101982.78;4966834;28;20106;-76
2024/01/25 09:54:38;;;;;;;26.60;7.22;;;10.40;99.90;;;9.14;100.00;101981.00;4939521;28;20051;-76
2024/01/25 09:57:21;;;;;;;28.55;7.32;;;10.40;99.90;;;9.19;100.00;101989.78;4951598;28;20059;-76
2024/01/25 09:59:57;;;;;;;36.33;8.50;;;10.40;99.90;;;9.22;100.00;101989.81;4951373;28;20056;-75
2024/01/25 10:02:30;;;;;;;30.23;7.20;;;10.40;99.90;;;9.28;100.00;102002.13;4952837;28;20636;-76
2024/01/25 10:05:04;;;;;;;21.77;7.30;;;10.40;99.90;;;9.27;100.00;101984.59;4956561;28;20061;-75
2024/01/25 10:07:43;;;;;;;31.85;7.32;;;10.40;99.90;;;9.24;100.00;101984.59;4948136;28;20449;-81
2024/01/25 10:10:12;;;;;;;24.27;7.07;;;10.70;79.80;;;9.20;100.00;101968.78;4938267;28;20040;-80
2024/01/25 10:12:44;;;;;;;27.43;6.30;;;11.00;99.90;;;9.34;100.00;101992.53;4955150;28;20074;-79